createdAt,value
2022-10-25T00:00:23.900Z,12.51
2022-10-25T00:02:26.522Z,12.47
2022-10-25T00:04:29.107Z,12.43
2022-10-25T00:06:31.729Z,12.41
2022-10-25T00:08:34.265Z,12.45
2022-10-25T00:10:37.640Z,12.39
2022-10-25T00:12:44.111Z,12.42
2022-10-25T00:14:46.716Z,12.42
2022-10-25T00:16:50.703Z,12.44
2022-10-25T00:18:53.641Z,12.42
2022-10-25T00:20:56.289Z,12.49
2022-10-25T00:22:58.917Z,12.49
2022-10-25T00:25:01.604Z,12.48
2022-10-25T00:27:04.225Z,12.43
2022-10-25T00:29:06.986Z,12.36
2022-10-25T00:31:11.915Z,12.40
2022-10-25T00:33:15.838Z,12.27
2022-10-25T00:35:18.489Z,12.29
2022-10-25T00:37:21.056Z,12.29
2022-10-25T00:39:23.659Z,12.32
2022-10-25T00:41:29.183Z,12.34
2022-10-25T00:43:33.933Z,12.39
2022-10-25T00:45:36.738Z,12.45
2022-10-25T00:47:47.680Z,12.49
2022-10-25T00:50:01.842Z,12.51
2022-10-25T00:52:07.767Z,12.77
2022-10-25T00:54:13.942Z,12.72
2022-10-25T00:56:23.752Z,12.87
2022-10-25T00:58:29.809Z,12.87
2022-10-25T01:00:32.707Z,12.85
2022-10-25T01:02:36.045Z,12.84
2022-10-25T01:04:38.823Z,12.75
2022-10-25T01:06:46.530Z,12.69
2022-10-25T01:08:51.070Z,12.79
2022-10-25T01:10:53.656Z,12.87
2022-10-25T01:12:56.951Z,12.87
2022-10-25T01:14:59.760Z,12.86
2022-10-25T01:17:10.729Z,12.70
2022-10-25T01:21:48.940Z,12.63
2022-10-25T01:24:32.124Z,12.53
2022-10-25T01:26:53.296Z,12.62
2022-10-25T01:29:15.846Z,12.65
2022-10-25T01:31:28.411Z,12.45
2022-10-25T01:33:35.814Z,12.45
2022-10-25T01:35:46.407Z,12.65
2022-10-25T01:38:03.258Z,12.66
2022-10-25T01:40:11.509Z,12.89
2022-10-25T01:42:23.522Z,12.66
2022-10-25T01:44:38.015Z,12.75
2022-10-25T01:46:46.807Z,12.49
2022-10-25T01:48:54.699Z,12.52
2022-10-25T01:51:06.232Z,12.37
2022-10-25T01:53:08.816Z,12.29
2022-10-25T01:55:14.969Z,12.17
2022-10-25T01:57:42.747Z,12.21
2022-10-25T02:00:07.118Z,12.17
2022-10-25T02:02:16.296Z,12.15
2022-10-25T02:04:31.677Z,12.08
2022-10-25T02:06:44.195Z,11.89
2022-10-25T02:08:51.887Z,12.09
2022-10-25T02:11:02.376Z,12.02
2022-10-25T02:13:16.924Z,12.06
2022-10-25T02:15:25.706Z,11.93
2022-10-25T02:17:29.670Z,11.94
2022-10-25T02:19:34.841Z,11.98
2022-10-25T02:21:38.559Z,11.93
2022-10-25T02:23:42.315Z,11.92
2022-10-25T02:25:46.335Z,11.90
2022-10-25T02:27:51.326Z,11.92
2022-10-25T02:29:55.684Z,11.86
2022-10-25T02:31:58.480Z,11.85
2022-10-25T02:34:02.593Z,11.79
2022-10-25T02:36:13.326Z,11.83
2022-10-25T02:38:16.012Z,11.88
2022-10-25T02:40:18.809Z,11.89
2022-10-25T02:42:21.414Z,11.81
2022-10-25T02:44:24.055Z,11.82
2022-10-25T02:46:26.852Z,11.74
2022-10-25T02:48:29.435Z,11.75
2022-10-25T02:50:33.331Z,11.69
2022-10-25T02:52:35.925Z,11.64
2022-10-25T02:54:38.541Z,11.61
2022-10-25T02:56:41.116Z,11.57
2022-10-25T02:58:45.382Z,11.54
2022-10-25T03:00:49.512Z,11.55
2022-10-25T03:02:52.137Z,11.58
2022-10-25T03:04:54.758Z,11.53
2022-10-25T03:06:59.054Z,11.50
2022-10-25T03:09:01.615Z,11.53
2022-10-25T03:11:05.497Z,11.51
2022-10-25T03:13:08.124Z,11.62
2022-10-25T03:15:11.432Z,11.70
2022-10-25T03:17:13.979Z,11.72
2022-10-25T03:19:16.539Z,11.71
2022-10-25T03:21:19.121Z,11.62
2022-10-25T03:23:23.058Z,11.59
2022-10-25T03:25:25.737Z,11.54
2022-10-25T03:27:28.330Z,11.52
2022-10-25T03:29:30.880Z,11.49
2022-10-25T03:31:33.497Z,11.45
2022-10-25T03:33:36.132Z,11.44
2022-10-25T03:35:38.823Z,11.42
2022-10-25T03:37:41.396Z,11.40
2022-10-25T03:39:45.393Z,11.37
2022-10-25T03:41:47.995Z,11.36
2022-10-25T03:43:50.685Z,11.31
2022-10-25T03:45:53.381Z,11.24
2022-10-25T03:47:55.975Z,11.24
2022-10-25T03:49:58.618Z,11.26
2022-10-25T03:52:02.755Z,11.24
2022-10-25T03:54:07.567Z,11.24
2022-10-25T03:56:11.551Z,11.24
2022-10-25T03:58:14.155Z,11.19
2022-10-25T04:00:16.905Z,11.23
2022-10-25T04:02:19.583Z,11.27
2022-10-25T04:04:22.271Z,11.30
2022-10-25T04:06:24.920Z,11.31
2022-10-25T04:08:27.515Z,11.34
2022-10-25T04:10:32.611Z,11.35
2022-10-25T04:12:36.532Z,11.42
2022-10-25T04:14:39.412Z,11.41
2022-10-25T04:16:42.111Z,11.39
2022-10-25T04:18:44.772Z,11.35
2022-10-25T04:20:47.365Z,11.31
2022-10-25T04:22:54.629Z,11.32
2022-10-25T04:24:57.244Z,11.24
2022-10-25T04:26:59.799Z,11.23
2022-10-25T04:29:04.925Z,11.23
2022-10-25T04:31:07.487Z,11.25
2022-10-25T04:33:10.070Z,11.19
2022-10-25T04:35:13.684Z,11.17
2022-10-25T04:37:16.368Z,11.14
2022-10-25T04:39:18.980Z,11.14
2022-10-25T04:41:22.487Z,11.13
2022-10-25T04:43:29.360Z,11.12
2022-10-25T04:45:33.267Z,11.12
2022-10-25T04:47:35.904Z,11.05
2022-10-25T04:49:38.488Z,11.06
2022-10-25T04:51:41.612Z,11.05
2022-10-25T04:53:44.293Z,11.05
2022-10-25T04:55:56.688Z,11.01
2022-10-25T04:57:59.298Z,11.06
2022-10-25T05:00:02.049Z,11.03
2022-10-25T05:02:06.267Z,11.07
2022-10-25T05:04:08.865Z,11.04
2022-10-25T05:06:14.293Z,11.04
2022-10-25T05:08:16.892Z,11.05
2022-10-25T05:10:19.548Z,11.05
2022-10-25T05:12:24.424Z,11.05
2022-10-25T05:14:26.968Z,11.10
2022-10-25T05:16:29.645Z,11.15
2022-10-25T05:18:35.250Z,11.14
2022-10-25T05:20:37.842Z,11.13
2022-10-25T05:22:40.446Z,11.05
2022-10-25T05:24:42.981Z,11.05
2022-10-25T05:26:45.557Z,11.01
2022-10-25T05:28:49.924Z,10.97
2022-10-25T05:30:52.492Z,10.92
2022-10-25T05:32:55.059Z,10.97
2022-10-25T05:34:59.010Z,10.90
2022-10-25T05:37:01.688Z,10.97
2022-10-25T05:39:04.437Z,10.95
2022-10-25T05:41:07.950Z,10.94
2022-10-25T05:43:10.542Z,10.92
2022-10-25T05:45:13.117Z,10.93
2022-10-25T05:47:15.774Z,10.94
2022-10-25T05:49:18.598Z,10.89
2022-10-25T05:51:34.654Z,10.91
2022-10-25T05:53:38.281Z,10.88
2022-10-25T05:55:40.842Z,10.89
2022-10-25T05:57:43.391Z,10.81
2022-10-25T05:59:48.730Z,10.82
2022-10-25T06:01:51.672Z,10.81
2022-10-25T06:03:56.374Z,10.76
2022-10-25T06:06:02.062Z,10.70
2022-10-25T06:08:06.119Z,10.71
2022-10-25T06:10:10.757Z,10.69
2022-10-25T06:12:13.509Z,10.68
2022-10-25T06:14:16.069Z,10.67
2022-10-25T06:16:20.196Z,10.63
2022-10-25T06:18:22.802Z,10.64
2022-10-25T06:20:25.358Z,10.66
2022-10-25T06:22:27.953Z,10.66
2022-10-25T06:24:31.860Z,10.68
2022-10-25T06:26:34.467Z,10.70
2022-10-25T06:28:37.798Z,10.70
2022-10-25T06:30:40.420Z,10.74
2022-10-25T06:32:42.989Z,10.70
2022-10-25T06:34:45.572Z,10.70
2022-10-25T06:36:48.120Z,10.77
2022-10-25T06:38:51.587Z,10.73
2022-10-25T06:40:59.656Z,10.75
2022-10-25T06:43:02.221Z,10.80
2022-10-25T06:45:05.460Z,10.79
2022-10-25T06:47:23.412Z,10.83
2022-10-25T06:49:29.137Z,10.86
2022-10-25T06:51:32.660Z,10.89
2022-10-25T06:53:35.236Z,10.90
2022-10-25T06:55:37.828Z,10.96
2022-10-25T06:57:41.795Z,11.01
2022-10-25T06:59:45.894Z,11.05
2022-10-25T07:01:49.980Z,11.09
2022-10-25T07:03:53.828Z,11.14
2022-10-25T07:05:56.490Z,11.19
2022-10-25T07:07:59.063Z,11.25
2022-10-25T07:10:01.998Z,11.31
2022-10-25T07:12:08.730Z,11.33
2022-10-25T07:14:15.498Z,11.30
2022-10-25T07:16:20.828Z,11.35
2022-10-25T07:18:23.419Z,11.41
2022-10-25T07:20:26.062Z,11.41
2022-10-25T07:22:29.450Z,11.44
2022-10-25T07:24:32.247Z,11.43
2022-10-25T07:26:35.801Z,11.48
2022-10-25T07:28:38.745Z,11.51
2022-10-25T07:30:47.264Z,11.55
2022-10-25T07:32:49.920Z,11.49
2022-10-25T07:34:52.631Z,11.53
2022-10-25T07:36:55.214Z,11.64
2022-10-25T07:38:58.206Z,11.65
2022-10-25T07:41:01.189Z,11.70
2022-10-25T07:43:06.396Z,11.73
2022-10-25T07:45:09.922Z,11.78
2022-10-25T07:47:13.864Z,11.84
2022-10-25T07:49:16.638Z,11.90
2022-10-25T07:51:20.415Z,11.96
2022-10-25T07:53:23.202Z,11.97
2022-10-25T07:55:25.798Z,12.00
2022-10-25T07:57:28.392Z,11.98
2022-10-25T07:59:31.320Z,12.00
2022-10-25T08:01:33.959Z,12.02
2022-10-25T08:03:38.349Z,12.06
2022-10-25T08:05:41.020Z,12.08
2022-10-25T08:07:43.577Z,12.12
2022-10-25T08:09:46.219Z,12.14
2022-10-25T08:11:48.862Z,12.17
2022-10-25T08:13:51.795Z,12.17
2022-10-25T08:15:55.744Z,12.20
2022-10-25T08:17:59.939Z,12.23
2022-10-25T08:20:04.000Z,12.27
2022-10-25T08:22:06.548Z,12.31
2022-10-25T08:24:09.432Z,12.29
2022-10-25T08:26:12.812Z,12.31
2022-10-25T08:28:15.423Z,12.34
2022-10-25T08:30:18.601Z,12.37
2022-10-25T08:32:21.178Z,12.37
2022-10-25T08:34:23.759Z,12.41
2022-10-25T08:36:28.078Z,12.44
2022-10-25T08:38:30.907Z,12.46
2022-10-25T08:40:46.352Z,12.49
2022-10-25T08:43:02.142Z,12.53
2022-10-25T08:45:12.059Z,12.57
2022-10-25T08:47:21.745Z,12.60
2022-10-25T08:49:30.878Z,12.63
2022-10-25T08:51:38.471Z,12.67
2022-10-25T08:53:48.826Z,12.72
2022-10-25T08:56:05.416Z,12.79
2022-10-25T08:58:19.443Z,12.83
2022-10-25T09:00:23.949Z,12.87
2022-10-25T09:02:38.126Z,12.89
2022-10-25T09:04:40.700Z,12.91
2022-10-25T09:06:52.751Z,12.95
2022-10-25T09:09:06.338Z,12.99
2022-10-25T09:11:19.253Z,13.03
2022-10-25T09:15:46.584Z,13.07
2022-10-25T09:17:51.539Z,13.10
2022-10-25T09:20:04.771Z,13.13
2022-10-25T09:22:15.795Z,13.14
2022-10-25T09:24:23.868Z,13.15
2022-10-25T09:26:40.139Z,13.16
2022-10-25T09:28:52.461Z,13.17
2022-10-25T09:30:59.496Z,13.18
2022-10-25T09:33:06.860Z,13.20
2022-10-25T09:35:16.487Z,13.20
2022-10-25T09:37:26.491Z,13.22
2022-10-25T09:39:38.351Z,13.23
2022-10-25T09:41:43.419Z,13.22
2022-10-25T09:43:50.133Z,13.25
2022-10-25T09:45:56.561Z,13.28
2022-10-25T09:48:07.420Z,13.35
2022-10-25T09:50:17.331Z,13.36
2022-10-25T09:52:29.072Z,13.38
2022-10-25T09:54:36.391Z,13.40
2022-10-25T09:56:40.521Z,13.42
2022-10-25T09:58:45.707Z,13.43
2022-10-25T10:00:48.734Z,13.46
2022-10-25T10:02:51.536Z,13.47
2022-10-25T10:04:55.338Z,13.49
2022-10-25T10:07:03.491Z,13.54
2022-10-25T10:09:11.454Z,13.54
2022-10-25T10:11:18.230Z,13.56
2022-10-25T10:13:28.936Z,13.58
2022-10-25T10:15:36.499Z,13.69
2022-10-25T10:17:39.101Z,13.70
2022-10-25T10:19:43.978Z,14.02
2022-10-25T10:21:48.724Z,13.93
2022-10-25T10:23:54.610Z,13.99
2022-10-25T10:26:02.662Z,13.95
2022-10-25T10:28:05.472Z,13.97
2022-10-25T10:30:09.751Z,14.01
2022-10-25T10:32:26.863Z,14.00
2022-10-25T10:34:32.270Z,14.02
2022-10-25T10:36:36.320Z,14.01
2022-10-25T10:38:38.965Z,14.00
2022-10-25T10:40:42.214Z,14.00
2022-10-25T10:42:46.508Z,14.02
2022-10-25T10:45:15.380Z,14.04
2022-10-25T10:47:22.067Z,14.06
2022-10-25T10:49:37.009Z,14.11
2022-10-25T10:51:45.299Z,14.17
2022-10-25T10:53:48.375Z,14.19
2022-10-25T10:55:53.370Z,14.19
2022-10-25T10:58:02.729Z,14.22
2022-10-25T11:00:06.273Z,14.23
2022-10-25T11:02:24.891Z,14.27
2022-10-25T11:04:27.618Z,14.45
2022-10-25T11:06:32.965Z,14.49
2022-10-25T11:08:35.662Z,14.47
2022-10-25T11:10:38.837Z,14.58
2022-10-25T11:12:41.691Z,14.58
2022-10-25T11:14:45.860Z,14.57
2022-10-25T11:16:57.378Z,14.57
2022-10-25T11:19:19.121Z,14.57
2022-10-25T11:21:49.352Z,14.65
2022-10-25T11:24:04.573Z,14.88
2022-10-25T11:26:17.934Z,14.91
2022-10-25T11:28:35.550Z,14.87
2022-10-25T11:30:46.557Z,14.88
2022-10-25T11:33:14.526Z,14.91
2022-10-25T11:35:34.127Z,14.98
2022-10-25T11:37:43.408Z,15.09
2022-10-25T11:39:54.717Z,15.07
2022-10-25T11:42:06.053Z,15.06
2022-10-25T11:44:54.854Z,15.27
2022-10-25T11:47:10.444Z,15.31
2022-10-25T11:49:31.584Z,15.30
2022-10-25T11:51:44.771Z,15.27
2022-10-25T11:54:08.794Z,15.25
2022-10-25T11:56:19.919Z,15.39
2022-10-25T11:58:37.152Z,15.60
2022-10-25T12:00:51.883Z,15.51
2022-10-25T12:03:08.958Z,15.52
2022-10-25T12:05:25.071Z,15.58
2022-10-25T12:07:34.185Z,15.84
2022-10-25T12:09:43.867Z,15.71
2022-10-25T12:11:50.829Z,15.79
2022-10-25T12:13:58.973Z,15.87
2022-10-25T12:16:04.632Z,15.91
2022-10-25T12:18:15.528Z,16.27
2022-10-25T12:20:24.514Z,16.20
2022-10-25T12:22:29.800Z,16.23
2022-10-25T12:24:42.823Z,16.54
2022-10-25T12:26:46.815Z,16.44
2022-10-25T12:28:50.855Z,16.29
2022-10-25T12:30:58.857Z,16.25
2022-10-25T12:33:10.983Z,16.37
2022-10-25T12:35:22.884Z,16.21
2022-10-25T12:37:32.238Z,16.38
2022-10-25T12:39:39.844Z,16.38
2022-10-25T12:41:48.235Z,16.29
2022-10-25T12:44:08.371Z,16.31
2022-10-25T12:46:35.685Z,16.58
2022-10-25T12:49:00.859Z,16.57
2022-10-25T12:51:22.679Z,16.70
2022-10-25T12:53:59.409Z,16.70
2022-10-25T12:56:05.319Z,16.61
2022-10-25T12:58:23.605Z,16.67
2022-10-25T13:00:28.993Z,16.76
2022-10-25T13:02:50.136Z,16.70
2022-10-25T13:05:17.353Z,16.79
2022-10-25T13:07:23.736Z,16.97
2022-10-25T13:09:32.028Z,16.95
2022-10-25T13:11:38.283Z,17.05
2022-10-25T13:13:49.926Z,16.94
2022-10-25T13:15:56.204Z,17.00
2022-10-25T13:18:03.606Z,16.85
2022-10-25T13:20:45.069Z,16.81
2022-10-25T13:22:49.718Z,16.74
2022-10-25T13:24:52.453Z,16.70
2022-10-25T13:27:24.827Z,16.76
2022-10-25T13:32:22.043Z,16.85
2022-10-25T13:34:36.508Z,16.83
2022-10-25T13:36:48.232Z,16.84
2022-10-25T13:39:04.001Z,16.94
2022-10-25T13:41:16.088Z,17.00
2022-10-25T13:43:21.335Z,17.10
2022-10-25T13:45:33.555Z,17.19
2022-10-25T13:47:40.803Z,17.37
2022-10-25T13:49:44.572Z,17.52
2022-10-25T13:51:47.910Z,17.66
2022-10-25T13:53:54.104Z,17.84
2022-10-25T13:56:06.149Z,17.99
2022-10-25T13:58:41.296Z,18.16
2022-10-25T14:00:47.973Z,18.32
2022-10-25T14:03:04.553Z,18.49
2022-10-25T14:05:11.286Z,18.75
2022-10-25T14:07:49.263Z,18.99
2022-10-25T14:09:54.210Z,19.06
2022-10-25T14:12:11.959Z,19.15
2022-10-25T14:14:24.213Z,19.26
2022-10-25T14:16:30.524Z,19.46
2022-10-25T14:18:37.080Z,19.47
2022-10-25T14:20:40.266Z,19.54
2022-10-25T14:22:44.223Z,19.72
2022-10-25T14:24:51.050Z,19.76
2022-10-25T14:26:56.793Z,19.77
2022-10-25T14:29:13.597Z,19.81
2022-10-25T14:31:20.724Z,19.76
2022-10-25T14:33:26.925Z,19.71
2022-10-25T14:35:33.763Z,19.60
2022-10-25T14:37:42.291Z,19.52
2022-10-25T14:39:52.977Z,19.34
2022-10-25T14:41:58.457Z,19.20
2022-10-25T14:44:02.107Z,19.11
2022-10-25T14:46:13.480Z,19.08
2022-10-25T14:48:16.167Z,18.91
2022-10-25T14:50:22.849Z,18.83
2022-10-25T14:52:26.554Z,18.71
2022-10-25T14:54:33.617Z,18.61
2022-10-25T14:56:39.567Z,18.57
2022-10-25T14:58:44.832Z,18.51
2022-10-25T15:00:58.652Z,18.58
2022-10-25T15:03:04.754Z,18.51
2022-10-25T15:05:08.464Z,18.47
2022-10-25T15:07:22.011Z,18.38
2022-10-25T15:12:09.603Z,18.23
2022-10-25T15:14:22.621Z,18.13
2022-10-25T15:16:29.948Z,18.03
2022-10-25T15:18:35.904Z,17.95
2022-10-25T15:20:38.473Z,17.87
2022-10-25T15:22:44.366Z,17.78
2022-10-25T15:24:48.939Z,17.72
2022-10-25T15:26:53.200Z,17.61
2022-10-25T15:28:58.077Z,17.56
2022-10-25T15:31:07.238Z,17.49
2022-10-25T15:33:13.963Z,17.42
2022-10-25T15:35:26.417Z,17.36
2022-10-25T15:37:30.533Z,17.30
2022-10-25T15:39:33.432Z,17.26
2022-10-25T15:41:36.487Z,17.20
2022-10-25T15:43:39.081Z,17.16
2022-10-25T15:45:41.963Z,17.17
2022-10-25T15:47:47.510Z,17.16
2022-10-25T15:49:53.071Z,17.15
2022-10-25T15:51:56.012Z,17.14
2022-10-25T15:53:58.564Z,17.06
2022-10-25T15:56:01.148Z,17.01
2022-10-25T15:58:07.040Z,16.93
2022-10-25T16:00:15.053Z,16.91
2022-10-25T16:02:23.119Z,16.85
2022-10-25T16:04:27.294Z,16.77
2022-10-25T16:06:30.065Z,16.71
2022-10-25T16:08:32.664Z,16.63
2022-10-25T16:10:35.357Z,16.56
2022-10-25T16:12:38.776Z,16.56
2022-10-25T16:14:41.414Z,16.45
2022-10-25T16:16:44.160Z,16.35
2022-10-25T16:18:46.942Z,16.24
2022-10-25T16:20:51.876Z,16.16
2022-10-25T16:22:55.579Z,16.08
2022-10-25T16:24:58.157Z,16.02
2022-10-25T16:27:01.233Z,15.92
2022-10-25T16:29:03.913Z,15.86
2022-10-25T16:31:06.640Z,15.79
2022-10-25T16:33:09.256Z,15.74
2022-10-25T16:35:14.480Z,15.67
2022-10-25T16:37:18.757Z,15.65
2022-10-25T16:39:21.487Z,15.60
2022-10-25T16:41:26.183Z,15.55
2022-10-25T16:43:28.758Z,15.51
2022-10-25T16:45:34.023Z,15.49
2022-10-25T16:47:36.865Z,15.44
2022-10-25T16:49:39.400Z,15.39
2022-10-25T16:51:44.116Z,15.39
2022-10-25T16:53:49.361Z,15.33
2022-10-25T16:55:51.965Z,15.27
2022-10-25T16:57:54.518Z,15.23
2022-10-25T16:59:57.407Z,15.18
2022-10-25T17:02:00.241Z,15.17
2022-10-25T17:04:03.814Z,15.12
2022-10-25T17:06:22.161Z,15.08
2022-10-25T17:08:29.423Z,15.05
2022-10-25T17:10:33.331Z,15.08
2022-10-25T17:12:42.526Z,15.02
2022-10-25T17:14:45.096Z,15.00
2022-10-25T17:16:47.678Z,14.98
2022-10-25T17:18:50.230Z,14.94
2022-10-25T17:20:52.818Z,14.89
2022-10-25T17:22:55.479Z,14.90
2022-10-25T17:24:58.029Z,14.89
2022-10-25T17:27:02.063Z,14.88
2022-10-25T17:29:05.001Z,14.85
2022-10-25T17:31:12.430Z,14.84
2022-10-25T17:33:14.990Z,14.81
2022-10-25T17:35:19.500Z,14.76
2022-10-25T17:37:22.169Z,14.75
2022-10-25T17:39:24.724Z,14.72
2022-10-25T17:41:27.409Z,14.72
2022-10-25T17:43:31.373Z,14.68
2022-10-25T17:45:34.006Z,14.70
2022-10-25T17:47:37.622Z,14.67
2022-10-25T17:49:40.552Z,14.64
2022-10-25T17:51:43.859Z,14.62
2022-10-25T17:53:52.615Z,14.60
2022-10-25T17:55:55.164Z,14.57
2022-10-25T17:57:57.750Z,14.53
2022-10-25T18:00:02.982Z,14.51
2022-10-25T18:02:05.655Z,14.49
2022-10-25T18:04:08.286Z,14.46
2022-10-25T18:06:13.103Z,14.45
2022-10-25T18:08:15.732Z,14.40
2022-10-25T18:10:21.060Z,14.39
2022-10-25T18:12:23.637Z,14.34
2022-10-25T18:14:26.227Z,14.33
2022-10-25T18:16:31.478Z,14.29
2022-10-25T18:18:34.167Z,14.25
2022-10-25T18:20:40.253Z,14.24
2022-10-25T18:22:42.826Z,14.21
2022-10-25T18:24:47.523Z,14.18
2022-10-25T18:26:50.103Z,14.16
2022-10-25T18:28:53.212Z,14.13
2022-10-25T18:30:59.992Z,14.12
2022-10-25T18:33:08.993Z,14.11
2022-10-25T18:35:11.560Z,14.11
2022-10-25T18:37:14.163Z,14.10
2022-10-25T18:39:16.843Z,14.10
2022-10-25T18:41:24.620Z,14.10
2022-10-25T18:43:27.804Z,14.11
2022-10-25T18:45:30.526Z,14.06
2022-10-25T18:47:33.111Z,14.05
2022-10-25T18:49:37.052Z,14.00
2022-10-25T18:51:40.574Z,13.97
2022-10-25T18:53:43.339Z,13.91
2022-10-25T18:55:46.061Z,13.87
2022-10-25T18:57:48.905Z,13.85
2022-10-25T18:59:51.828Z,13.82
2022-10-25T19:01:54.676Z,13.81
2022-10-25T19:03:57.575Z,13.82
2022-10-25T19:06:01.521Z,13.69
2022-10-25T19:08:04.108Z,13.64
2022-10-25T19:10:07.639Z,13.57
2022-10-25T19:12:10.296Z,13.57
2022-10-25T19:14:13.186Z,13.54
2022-10-25T19:16:16.676Z,13.50
2022-10-25T19:18:19.229Z,13.45
2022-10-25T19:20:21.798Z,13.44
2022-10-25T19:22:25.750Z,13.41
2022-10-25T19:24:28.734Z,13.40
2022-10-25T19:26:31.433Z,13.38
2022-10-25T19:28:35.000Z,13.35
2022-10-25T19:30:38.046Z,13.32
2022-10-25T19:32:41.593Z,13.31
2022-10-25T19:34:44.173Z,13.30
2022-10-25T19:36:46.956Z,13.28
2022-10-25T19:38:50.915Z,13.28
2022-10-25T19:40:53.463Z,13.25
2022-10-25T19:42:56.126Z,13.27
2022-10-25T19:47:02.427Z,13.20
2022-10-25T19:49:05.007Z,13.20
2022-10-25T19:51:09.695Z,13.19
2022-10-25T19:53:12.408Z,13.16
2022-10-25T19:55:17.071Z,13.15
2022-10-25T19:57:19.679Z,13.14
2022-10-25T19:59:22.449Z,13.13
2022-10-25T20:01:27.157Z,13.13
2022-10-25T20:03:30.008Z,13.11
2022-10-25T20:05:32.633Z,13.13
2022-10-25T20:07:35.866Z,13.13
2022-10-25T20:09:38.610Z,13.13
2022-10-25T20:11:42.593Z,13.10
2022-10-25T20:13:45.615Z,13.08
2022-10-25T20:15:51.233Z,13.00
2022-10-25T20:17:53.847Z,12.95
2022-10-25T20:19:56.535Z,12.95
2022-10-25T20:21:59.861Z,12.94
2022-10-25T20:24:04.144Z,12.93
2022-10-25T20:26:14.708Z,12.92
2022-10-25T20:28:18.727Z,12.91
2022-10-25T20:30:21.786Z,12.92
2022-10-25T20:32:24.508Z,12.96
2022-10-25T20:34:27.203Z,12.97
2022-10-25T20:36:29.900Z,12.93
2022-10-25T20:38:32.590Z,12.95
2022-10-25T20:40:35.515Z,12.87
2022-10-25T20:42:38.123Z,12.85
2022-10-25T20:44:42.142Z,12.82
2022-10-25T20:46:44.744Z,12.82
2022-10-25T20:48:47.323Z,12.75
2022-10-25T20:50:50.518Z,12.74
2022-10-25T20:53:11.261Z,12.73
2022-10-25T20:55:13.886Z,12.72
2022-10-25T20:57:16.520Z,12.74
2022-10-25T20:59:19.077Z,12.77
2022-10-25T21:01:23.107Z,12.73
2022-10-25T21:03:27.116Z,12.86
2022-10-25T21:05:29.742Z,12.73
2022-10-25T21:07:33.092Z,12.69
2022-10-25T21:09:35.684Z,12.61
2022-10-25T21:11:38.340Z,12.60
2022-10-25T21:13:41.203Z,12.61
2022-10-25T21:15:46.518Z,12.63
2022-10-25T21:17:51.051Z,12.65
2022-10-25T21:19:53.896Z,12.66
2022-10-25T21:21:56.552Z,12.69
2022-10-25T21:24:00.461Z,12.70
2022-10-25T21:26:04.773Z,12.73
2022-10-25T21:28:07.799Z,12.72
2022-10-25T21:30:11.131Z,12.73
2022-10-25T21:32:13.678Z,12.75
2022-10-25T21:36:21.526Z,12.75
2022-10-25T21:38:24.194Z,12.77
2022-10-25T21:40:26.974Z,12.80
2022-10-25T21:42:31.568Z,12.82
2022-10-25T21:44:34.334Z,12.81
2022-10-25T21:46:36.905Z,12.81
2022-10-25T21:48:39.787Z,12.83
2022-10-25T21:50:43.738Z,12.85
2022-10-25T21:52:46.291Z,12.82
2022-10-25T21:54:48.945Z,12.83
2022-10-25T21:56:52.614Z,12.79
2022-10-25T21:58:55.152Z,12.79
2022-10-25T22:00:57.827Z,12.82
2022-10-25T22:03:00.389Z,12.87
2022-10-25T22:05:02.946Z,12.90
2022-10-25T22:07:06.877Z,12.92
2022-10-25T22:09:09.531Z,12.94
2022-10-25T22:11:15.576Z,12.98
2022-10-25T22:13:18.267Z,12.99
2022-10-25T22:15:20.876Z,13.03
2022-10-25T22:17:23.658Z,13.00
2022-10-25T22:19:27.267Z,13.01
2022-10-25T22:21:31.827Z,13.01
2022-10-25T22:23:36.183Z,13.02
2022-10-25T22:25:38.791Z,13.03
2022-10-25T22:27:41.410Z,13.02
2022-10-25T22:29:43.989Z,13.00
2022-10-25T22:31:46.608Z,13.02
2022-10-25T22:33:56.469Z,13.02
2022-10-25T22:38:10.446Z,13.02
2022-10-25T22:40:14.531Z,13.03
2022-10-25T22:42:17.103Z,13.02
2022-10-25T22:44:19.652Z,13.02
2022-10-25T22:46:25.151Z,13.03
2022-10-25T22:48:31.460Z,13.01
2022-10-25T22:50:34.000Z,13.00
2022-10-25T22:52:36.655Z,13.01
2022-10-25T22:54:39.276Z,13.05
2022-10-25T22:56:43.176Z,13.02
2022-10-25T22:58:49.858Z,12.99
2022-10-25T23:00:52.669Z,12.98
2022-10-25T23:02:55.354Z,12.98
2022-10-25T23:04:57.952Z,12.98
2022-10-25T23:07:00.517Z,12.98
2022-10-25T23:09:05.577Z,12.97
2022-10-25T23:11:11.170Z,12.97
2022-10-25T23:13:15.082Z,12.98
2022-10-25T23:15:17.693Z,12.97
2022-10-25T23:17:20.272Z,12.98
2022-10-25T23:19:22.852Z,12.91
2022-10-25T23:21:27.233Z,12.93
2022-10-25T23:23:33.885Z,12.92
2022-10-25T23:25:36.503Z,12.93
2022-10-25T23:27:39.159Z,12.93
2022-10-25T23:29:43.104Z,12.92
2022-10-25T23:31:45.646Z,12.91
2022-10-25T23:33:51.866Z,12.93
2022-10-25T23:35:54.462Z,12.94
2022-10-25T23:37:57.229Z,12.94
2022-10-25T23:39:59.858Z,12.94
2022-10-25T23:42:02.407Z,12.95
2022-10-25T23:44:05.477Z,12.94
2022-10-25T23:46:10.271Z,12.93
2022-10-25T23:48:12.848Z,12.93
2022-10-25T23:50:15.540Z,12.96
2022-10-25T23:52:18.099Z,12.95
2022-10-25T23:54:20.645Z,12.97
2022-10-25T23:56:23.213Z,12.97
2022-10-25T23:58:26.121Z,13.00
